Terminal Aerodrome Forecast
Issued by NWS

Home | Current Version | Previous Version | Text Only | Print | Product List | Glossary On
Versions: 1 2 3 4 5 6 7 8 9 10 11 12 13 14 15 16 17 18 19 20 21 22 23 24 25 26 27 28 29 30 31 32 33 34 35 36 37 38 39
000
FTAK31 PAFA 290520
TAFAFA
TAF
PAFA 290520Z 2906/3012 VRB06KT P6SM VCSH SCT020 BKN070
     FM291600 24005KT 4SM BR SCT015 BKN040 OVC070
     FM292100 24007KT P6SM VCSH FEW040 BKN070 OVC150=

USA.gov is the U.S. government's official web portal to all federal, state and local government web resources and services.